Time;durP1;ratioP1;P1;durP2;ratioP2;P2;SDS_P1;SDS_P2;PMS_P1;PMS_P2;Temp;Humidity;BMP_temperature;BMP_pressure;BME280_temperature;BME280_humidity;BME280_pressure;Samples;Min_cycle;Max_cycle;Signal;HPM_P1;HPM_P2
2022/04/04 00:00:43;;;;;;;37.05;24.42;;;1.90;99.90;;;;;;4776023;29;20147;-74
2022/04/04 00:03:10;;;;;;;41.58;24.85;;;1.90;99.90;;;;;;4760256;30;20059;-75
2022/04/04 00:05:38;;;;;;;37.35;24.33;;;1.90;99.90;;;;;;4759261;29;20142;-74
2022/04/04 00:08:08;;;;;;;37.60;24.77;;;1.80;99.90;;;;;;4775960;29;20393;-75
2022/04/04 00:10:35;;;;;;;36.72;25.10;;;1.80;99.90;;;;;;4758492;29;20304;-73
2022/04/04 00:13:02;;;;;;;41.13;25.15;;;1.80;99.90;;;;;;4775201;30;20580;-74
2022/04/04 00:15:28;;;;;;;40.10;24.73;;;1.70;99.90;;;;;;4774589;29;20121;-74
2022/04/04 00:17:55;;;;;;;38.10;24.80;;;1.70;99.90;;;;;;4774545;30;20087;-74
2022/04/04 00:20:22;;;;;;;32.35;23.75;;;1.70;99.90;;;;;;4774288;29;20559;-74
2022/04/04 00:22:50;;;;;;;35.38;23.95;;;1.70;99.90;;;;;;4779736;29;20051;-75
2022/04/04 00:25:17;;;;;;;33.80;22.80;;;1.70;99.90;;;;;;4806849;24;20043;-74
2022/04/04 00:27:45;;;;;;;35.38;22.90;;;1.70;99.90;;;;;;4804375;29;20495;-74
2022/04/04 00:30:11;;;;;;;35.35;23.33;;;1.70;99.90;;;;;;4786989;29;20051;-74
2022/04/04 00:32:38;;;;;;;35.47;22.45;;;1.60;99.90;;;;;;4781462;29;20061;-74
2022/04/04 00:35:05;;;;;;;34.83;23.85;;;1.60;99.90;;;;;;4797379;29;20427;-73
2022/04/04 00:37:34;;;;;;;37.17;24.98;;;1.60;99.90;;;;;;4779819;30;20059;-74
2022/04/04 00:40:00;;;;;;;34.28;22.55;;;1.70;99.90;;;;;;4777984;29;20360;-74
2022/04/04 00:42:27;;;;;;;38.85;24.23;;;1.70;99.90;;;;;;4778209;30;20059;-74
2022/04/04 00:44:54;;;;;;;33.22;23.00;;;1.70;99.90;;;;;;4767799;29;20051;-74
2022/04/04 00:47:21;;;;;;;35.08;23.98;;;1.70;99.90;;;;;;4782868;29;20130;-74
2022/04/04 00:49:48;;;;;;;30.88;23.25;;;1.80;99.90;;;;;;4790356;29;20055;-74
2022/04/04 00:52:15;;;;;;;31.83;23.20;;;1.90;99.90;;;;;;4772381;30;20131;-73
2022/04/04 00:54:43;;;;;;;31.05;21.90;;;1.80;99.90;;;;;;4779086;30;20150;-73
2022/04/04 00:57:10;;;;;;;29.50;20.40;;;1.90;99.90;;;;;;4786685;29;20350;-73
2022/04/04 00:59:37;;;;;;;32.50;23.33;;;1.90;99.90;;;;;;4792842;29;20059;-74
2022/04/04 01:02:05;;;;;;;36.33;24.35;;;1.90;99.90;;;;;;4784777;29;20059;-74
2022/04/04 01:04:32;;;;;;;30.05;21.98;;;1.90;99.90;;;;;;4779110;30;20047;-73
2022/04/04 01:07:00;;;;;;;36.15;24.90;;;1.80;99.90;;;;;;4778218;30;20304;-75
2022/04/04 01:09:30;;;;;;;34.03;23.60;;;1.90;99.90;;;;;;4777422;29;20059;-73
2022/04/04 01:12:07;;;;;;;37.47;24.73;;;1.90;99.90;;;;;;4778883;30;20063;-74
2022/04/04 01:14:36;;;;;;;36.17;25.38;;;1.90;99.90;;;;;;4790046;29;20132;-73
2022/04/04 01:17:04;;;;;;;34.47;25.65;;;1.90;99.90;;;;;;4777929;29;20055;-74
2022/04/04 01:19:31;;;;;;;34.97;24.27;;;1.90;99.90;;;;;;4778927;29;20578;-74
2022/04/04 01:21:57;;;;;;;35.85;24.88;;;1.90;99.90;;;;;;4778478;29;20104;-73
2022/04/04 01:24:25;;;;;;;36.80;26.20;;;1.90;99.90;;;;;;4778372;30;20094;-74
2022/04/04 01:26:53;;;;;;;37.17;24.65;;;1.90;99.90;;;;;;4784112;29;20095;-73
2022/04/04 01:29:20;;;;;;;33.83;23.48;;;1.80;99.90;;;;;;4789134;29;20466;-73
2022/04/04 01:31:49;;;;;;;36.00;22.90;;;1.80;99.90;;;;;;4776869;30;20126;-73
2022/04/04 01:34:18;;;;;;;38.13;25.80;;;1.80;99.90;;;;;;4778086;30;20059;-73
2022/04/04 01:36:46;;;;;;;36.92;24.88;;;1.80;99.90;;;;;;4778418;30;20086;-73
2022/04/04 01:39:12;;;;;;;38.60;26.80;;;1.80;99.90;;;;;;4778901;30;20047;-73
2022/04/04 01:41:39;;;;;;;34.83;24.92;;;1.80;99.90;;;;;;4777998;29;20047;-74
2022/04/04 01:44:07;;;;;;;33.78;23.10;;;1.80;99.90;;;;;;4787703;29;20465;-73
2022/04/04 01:46:34;;;;;;;30.13;21.67;;;1.80;99.90;;;;;;4778028;29;20047;-73
2022/04/04 01:49:03;;;;;;;35.30;24.33;;;1.80;99.90;;;;;;4787444;29;20423;-73
2022/04/04 01:51:32;;;;;;;32.85;23.17;;;1.80;99.90;;;;;;4775489;29;20066;-72
2022/04/04 01:53:59;;;;;;;38.08;23.67;;;1.90;99.90;;;;;;4778232;30;20120;-73
2022/04/04 01:56:27;;;;;;;29.50;22.25;;;1.90;99.90;;;;;;4765614;30;20104;-74
2022/04/04 01:58:54;;;;;;;32.40;21.52;;;1.90;99.90;;;;;;4783455;29;20073;-73
2022/04/04 02:01:23;;;;;;;31.45;21.17;;;1.80;99.90;;;;;;4777577;30;20055;-73
2022/04/04 02:03:58;;;;;;;31.42;22.88;;;1.90;99.90;;;;;;4761712;30;20292;-73
2022/04/04 02:06:25;;;;;;;31.05;22.08;;;1.80;99.90;;;;;;4775309;30;20055;-73
2022/04/04 02:08:52;;;;;;;34.00;23.40;;;1.80;99.90;;;;;;4778062;30;20163;-72
2022/04/04 02:11:20;;;;;;;31.92;23.40;;;1.70;99.90;;;;;;4776640;30;20071;-73
2022/04/04 02:13:47;;;;;;;30.92;21.15;;;1.70;99.90;;;;;;4784607;29;20086;-73
2022/04/04 02:16:14;;;;;;;34.17;22.77;;;1.70;99.90;;;;;;4778127;29;20066;-73
2022/04/04 02:18:41;;;;;;;32.08;21.42;;;1.60;99.90;;;;;;4792124;29;20055;-73
2022/04/04 02:21:09;;;;;;;29.90;20.40;;;1.60;99.90;;;;;;4777059;29;20504;-73
2022/04/04 02:23:36;;;;;;;28.75;20.25;;;1.60;99.90;;;;;;4764016;30;20066;-74
2022/04/04 02:26:04;;;;;;;26.45;19.52;;;1.60;99.90;;;;;;4778479;29;20051;-73
2022/04/04 02:28:31;;;;;;;24.15;18.02;;;1.60;99.90;;;;;;4788438;29;20058;-73
2022/04/04 02:30:59;;;;;;;28.10;19.58;;;1.60;99.90;;;;;;4779913;29;20498;-73
2022/04/04 02:33:27;;;;;;;22.25;16.65;;;1.60;99.90;;;;;;4760753;30;20554;-74
2022/04/04 02:35:54;;;;;;;27.20;17.67;;;1.50;99.90;;;;;;4774761;29;20633;-73
2022/04/04 02:38:24;;;;;;;26.20;17.80;;;1.50;99.90;;;;;;4776724;30;20120;-73
2022/04/04 02:40:52;;;;;;;23.17;17.15;;;1.50;99.90;;;;;;4777066;29;20086;-73
2022/04/04 02:43:19;;;;;;;22.60;16.13;;;1.50;99.90;;;;;;4778943;29;20039;-73
2022/04/04 02:45:47;;;;;;;24.38;16.83;;;1.50;99.90;;;;;;4777237;29;20066;-73
2022/04/04 02:48:15;;;;;;;21.63;16.40;;;1.50;99.90;;;;;;4790880;29;20120;-73
2022/04/04 02:50:46;;;;;;;27.42;19.15;;;1.50;99.90;;;;;;4775684;30;20468;-74
2022/04/04 02:53:13;;;;;;;27.65;18.27;;;1.60;99.90;;;;;;4758456;30;20093;-73
2022/04/04 02:58:26;;;;;;;26.23;18.48;;;1.60;99.90;;;;;;4788020;29;20582;-73
2022/04/04 03:00:53;;;;;;;25.45;17.48;;;1.60;99.90;;;;;;4793059;29;20133;-73
2022/04/04 03:03:20;;;;;;;23.40;16.05;;;1.60;99.90;;;;;;4784246;29;20229;-72
2022/04/04 03:05:48;;;;;;;21.05;15.88;;;1.60;99.90;;;;;;4776570;30;20047;-72
2022/04/04 03:08:14;;;;;;;25.73;18.98;;;1.60;99.90;;;;;;4774757;30;20051;-72
2022/04/04 03:10:41;;;;;;;29.17;18.92;;;1.60;99.90;;;;;;4774457;30;20456;-72
2022/04/04 03:13:08;;;;;;;35.40;18.67;;;1.60;99.90;;;;;;4777000;29;20073;-73
2022/04/04 03:15:35;;;;;;;27.48;17.25;;;1.60;99.90;;;;;;4776513;29;20335;-72
2022/04/04 03:18:04;;;;;;;30.63;21.67;;;1.60;99.90;;;;;;4777618;29;20092;-73
2022/04/04 03:20:32;;;;;;;32.55;20.02;;;1.70;99.90;;;;;;4776039;30;20052;-73
2022/04/04 03:23:00;;;;;;;28.33;17.67;;;1.70;99.90;;;;;;4773609;29;20128;-72
2022/04/04 03:25:28;;;;;;;29.67;20.63;;;1.70;99.90;;;;;;4772813;29;20043;-72
2022/04/04 03:27:55;;;;;;;32.60;18.42;;;1.70;99.90;;;;;;4769011;29;20142;-73
2022/04/04 03:30:27;;;;;;;24.75;18.13;;;1.70;99.90;;;;;;4776211;30;20431;-73
2022/04/04 03:32:57;;;;;;;29.33;20.33;;;1.70;99.90;;;;;;4760539;30;20059;-72
2022/04/04 03:35:26;;;;;;;37.78;21.52;;;1.70;99.90;;;;;;4756903;30;20154;-73
2022/04/04 03:37:55;;;;;;;30.42;18.25;;;1.70;99.90;;;;;;4759448;30;20052;-73
2022/04/04 03:40:23;;;;;;;29.23;17.50;;;1.70;99.90;;;;;;4742085;30;20579;-73
2022/04/04 03:42:52;;;;;;;33.40;20.80;;;1.70;99.90;;;;;;4760581;30;20186;-72
2022/04/04 03:45:20;;;;;;;30.15;18.33;;;1.70;99.90;;;;;;4786922;29;20059;-72
2022/04/04 03:47:48;;;;;;;30.67;19.40;;;1.70;99.90;;;;;;4775438;30;20086;-71
2022/04/04 03:50:17;;;;;;;36.88;19.67;;;1.70;99.90;;;;;;4761519;30;20128;-71
2022/04/04 03:52:47;;;;;;;28.13;18.85;;;1.70;99.90;;;;;;4776807;29;20168;-72
2022/04/04 03:55:16;;;;;;;31.63;20.83;;;1.60;99.90;;;;;;4775303;29;20059;-72
2022/04/04 03:57:44;;;;;;;25.60;18.63;;;1.60;99.90;;;;;;4773188;29;20474;-73
2022/04/04 04:00:12;;;;;;;30.60;18.15;;;1.60;99.90;;;;;;4777619;29;20078;-73
2022/04/04 04:02:39;;;;;;;31.85;19.17;;;1.60;99.90;;;;;;4793217;29;20115;-73
2022/04/04 04:05:12;;;;;;;30.05;19.52;;;1.60;99.90;;;;;;4784286;29;20515;-72
2022/04/04 04:07:39;;;;;;;30.02;19.08;;;1.50;99.90;;;;;;4775970;30;20146;-71
2022/04/04 04:10:07;;;;;;;31.98;19.90;;;1.50;99.90;;;;;;4775314;30;20059;-71
2022/04/04 04:12:34;;;;;;;28.23;17.60;;;1.50;99.90;;;;;;4776489;30;20258;-72
2022/04/04 04:15:01;;;;;;;28.90;18.63;;;1.50;99.90;;;;;;4775536;29;20047;-72
2022/04/04 04:17:28;;;;;;;28.75;17.70;;;1.50;99.90;;;;;;4776552;29;20154;-71
2022/04/04 04:22:40;;;;;;;;;;;1.50;99.90;;;;;;4776137;29;20680;-71
2022/04/04 04:25:08;;;;;;;29.65;16.85;;;1.50;99.90;;;;;;4774841;29;19933;-72
2022/04/04 04:27:35;;;;;;;21.58;15.35;;;1.50;99.90;;;;;;4783075;29;20333;-72
2022/04/04 04:30:03;;;;;;;23.90;16.55;;;1.50;99.90;;;;;;4786503;29;20078;-72
2022/04/04 04:32:30;;;;;;;28.05;18.25;;;1.50;99.90;;;;;;4776241;30;20553;-72
2022/04/04 04:34:57;;;;;;;25.65;18.05;;;1.50;99.90;;;;;;4774842;30;20529;-72
2022/04/04 04:37:24;;;;;;;28.58;17.70;;;1.50;99.90;;;;;;4772519;30;20146;-71
2022/04/04 04:39:51;;;;;;;32.55;19.23;;;1.50;99.90;;;;;;4775151;30;20617;-71
2022/04/04 04:42:18;;;;;;;32.88;19.40;;;1.50;99.90;;;;;;4774904;30;20098;-71
2022/04/04 04:44:46;;;;;;;31.88;21.52;;;1.50;99.90;;;;;;4774616;30;20592;-74
2022/04/04 04:47:15;;;;;;;33.03;20.20;;;1.50;99.90;;;;;;4747803;30;20473;-72
2022/04/04 04:49:41;;;;;;;33.60;19.88;;;1.50;99.90;;;;;;4784981;29;20225;-71
2022/04/04 04:52:08;;;;;;;33.13;19.33;;;1.50;99.90;;;;;;4784186;29;20097;-73
2022/04/04 04:54:35;;;;;;;31.65;20.90;;;1.50;99.90;;;;;;4776262;30;20340;-72
2022/04/04 04:57:03;;;;;;;31.13;21.50;;;1.50;99.90;;;;;;4760283;29;20507;-72
2022/04/04 04:59:29;;;;;;;36.92;20.63;;;1.50;99.90;;;;;;4762744;30;20090;-72
2022/04/04 05:01:56;;;;;;;33.35;20.30;;;1.50;99.90;;;;;;4774376;30;20158;-73
2022/04/04 05:04:23;;;;;;;38.95;22.40;;;1.50;99.90;;;;;;4774934;29;20495;-73
2022/04/04 05:06:50;;;;;;;32.65;22.13;;;1.50;99.90;;;;;;4768409;29;20545;-72
2022/04/04 05:09:20;;;;;;;33.72;22.88;;;1.50;99.90;;;;;;4775611;30;20411;-72
2022/04/04 05:11:47;;;;;;;28.92;19.58;;;1.60;99.90;;;;;;4788947;29;20066;-73
2022/04/04 05:14:17;;;;;;;24.35;18.77;;;1.60;99.90;;;;;;4775559;30;20434;-73
2022/04/04 05:16:45;;;;;;;30.30;20.58;;;1.60;99.90;;;;;;4771458;29;20475;-73
2022/04/04 05:19:13;;;;;;;29.00;21.23;;;1.60;99.90;;;;;;4778703;30;20083;-72
2022/04/04 05:21:40;;;;;;;29.45;21.10;;;1.70;99.90;;;;;;4777177;30;20146;-72
2022/04/04 05:24:08;;;;;;;23.27;20.52;;;1.70;99.90;;;;;;4778726;30;20136;-73
2022/04/04 05:26:36;;;;;;;24.67;21.08;;;1.70;99.90;;;;;;4783168;29;20043;-73
2022/04/04 05:29:03;;;;;;;25.42;22.67;;;1.80;99.90;;;;;;4787796;29;20051;-73
2022/04/04 05:31:31;;;;;;;26.83;22.05;;;1.80;99.90;;;;;;4778654;29;20059;-72
2022/04/04 05:33:59;;;;;;;22.83;20.58;;;1.80;99.90;;;;;;4778311;30;20067;-73
2022/04/04 05:36:27;;;;;;;24.40;21.45;;;1.80;99.90;;;;;;4758601;30;20702;-73
2022/04/04 05:38:54;;;;;;;25.92;22.63;;;1.80;99.90;;;;;;4777689;30;20055;-72
2022/04/04 05:41:21;;;;;;;25.75;22.00;;;1.80;99.90;;;;;;4777899;30;20055;-72
2022/04/04 05:43:48;;;;;;;26.55;23.13;;;1.80;99.90;;;;;;4783594;29;20055;-73
2022/04/04 05:46:16;;;;;;;24.63;21.95;;;1.90;99.90;;;;;;4778360;29;20070;-73
2022/04/04 05:48:43;;;;;;;24.52;22.15;;;1.90;99.90;;;;;;4778771;29;20062;-72
2022/04/04 05:51:13;;;;;;;24.15;21.83;;;1.90;99.90;;;;;;4777475;29;20136;-71
2022/04/04 05:53:40;;;;;;;24.38;21.77;;;1.90;99.90;;;;;;4777986;30;20286;-73
2022/04/04 05:56:06;;;;;;;25.85;22.92;;;2.00;99.90;;;;;;4790525;29;20174;-72
2022/04/04 05:58:33;;;;;;;25.25;22.63;;;2.00;99.90;;;;;;4783577;29;20070;-72
2022/04/04 06:01:00;;;;;;;27.30;24.50;;;2.00;99.90;;;;;;4775580;30;20108;-73
2022/04/04 06:03:27;;;;;;;27.33;24.23;;;2.10;99.90;;;;;;4775174;30;20146;-72
2022/04/04 06:05:54;;;;;;;28.27;25.25;;;2.10;99.90;;;;;;4759894;30;20051;-72
2022/04/04 06:08:21;;;;;;;29.95;24.40;;;2.10;99.90;;;;;;4760018;30;20140;-72
2022/04/04 06:10:48;;;;;;;24.90;22.45;;;2.10;99.90;;;;;;4773006;29;20051;-72
2022/04/04 06:13:19;;;;;;;27.13;24.45;;;2.10;99.90;;;;;;4782152;29;20063;-71
2022/04/04 06:15:47;;;;;;;28.80;24.90;;;2.20;99.90;;;;;;4776888;29;20134;-72
2022/04/04 06:18:15;;;;;;;26.23;23.70;;;2.20;99.90;;;;;;4774516;30;20071;-72
2022/04/04 06:20:42;;;;;;;24.80;22.30;;;2.20;99.90;;;;;;4774323;29;20084;-72
2022/04/04 06:23:11;;;;;;;25.90;23.15;;;2.30;99.90;;;;;;4776624;30;20055;-73
2022/04/04 06:25:39;;;;;;;25.83;22.85;;;2.30;99.90;;;;;;4776382;29;20058;-72
2022/04/04 06:28:20;;;;;;;26.35;23.73;;;2.40;99.90;;;;;;4755653;30;20610;-75
2022/04/04 06:30:47;;;;;;;26.98;24.13;;;2.40;99.90;;;;;;4761515;30;20101;-76
2022/04/04 06:33:14;;;;;;;26.27;23.67;;;2.40;99.90;;;;;;4758759;30;20102;-76
2022/04/04 06:35:41;;;;;;;26.77;24.00;;;2.50;99.90;;;;;;4757407;30;20082;-74
2022/04/04 06:38:08;;;;;;;26.23;23.65;;;2.50;99.90;;;;;;4728303;30;20155;-76
2022/04/04 06:40:35;;;;;;;27.38;24.70;;;2.60;99.90;;;;;;4739684;30;20523;-75
2022/04/04 06:43:02;;;;;;;28.15;25.15;;;2.60;99.90;;;;;;4739901;30;20052;-75
2022/04/04 06:45:29;;;;;;;25.40;22.95;;;2.70;99.90;;;;;;4745899;30;20114;-74
2022/04/04 06:47:56;;;;;;;27.70;24.95;;;2.70;99.90;;;;;;4741554;30;20056;-74
2022/04/04 06:50:23;;;;;;;25.58;23.17;;;2.70;99.90;;;;;;4741673;30;20687;-75
2022/04/04 06:52:52;;;;;;;28.70;25.92;;;2.70;99.90;;;;;;4740364;30;20064;-75
2022/04/04 06:55:39;;;;;;;27.38;24.60;;;2.80;99.90;;;;;;4741929;30;20111;-75
2022/04/04 06:58:06;;;;;;;25.85;23.50;;;2.80;99.90;;;;;;4742688;30;20052;-74
2022/04/04 07:00:35;;;;;;;28.20;25.55;;;2.80;99.90;;;;;;4740018;30;20061;-76
2022/04/04 07:03:02;;;;;;;28.98;26.15;;;2.80;99.90;;;;;;4741708;30;20083;-75
2022/04/04 07:05:29;;;;;;;28.80;26.30;;;2.80;99.90;;;;;;4741451;30;20125;-74
2022/04/04 07:07:56;;;;;;;27.23;24.55;;;2.80;99.90;;;;;;4735845;30;20440;-74
2022/04/04 07:10:22;;;;;;;27.17;24.77;;;2.80;99.90;;;;;;4740399;30;20052;-75
2022/04/04 07:12:49;;;;;;;25.55;23.30;;;2.80;99.90;;;;;;4740432;30;20121;-74
2022/04/04 07:15:16;;;;;;;26.42;24.10;;;2.80;99.90;;;;;;4740433;30;20075;-75
2022/04/04 07:17:44;;;;;;;26.38;23.85;;;2.90;99.90;;;;;;4740568;30;20763;-73
2022/04/04 07:20:12;;;;;;;24.23;22.13;;;2.90;99.90;;;;;;4738860;30;20109;-75
2022/04/04 07:22:40;;;;;;;25.88;23.65;;;2.90;99.90;;;;;;4740802;30;20075;-74
2022/04/04 07:25:09;;;;;;;25.95;23.48;;;2.90;99.90;;;;;;4740056;30;20103;-74
2022/04/04 07:27:41;;;;;;;24.92;22.85;;;2.90;99.90;;;;;;4748278;30;20146;-73
2022/04/04 07:30:10;;;;;;;27.27;24.70;;;3.00;99.90;;;;;;4728263;30;20052;-74
2022/04/04 07:32:38;;;;;;;27.40;24.77;;;3.00;99.90;;;;;;4739342;30;20052;-73
2022/04/04 07:35:08;;;;;;;25.00;22.80;;;3.00;99.90;;;;;;4735531;30;20217;-74
2022/04/04 07:37:34;;;;;;;26.58;23.90;;;3.00;99.90;;;;;;4737836;30;20142;-74
2022/04/04 07:40:02;;;;;;;26.08;23.88;;;3.00;99.90;;;;;;4740013;30;20064;-74
2022/04/04 07:42:28;;;;;;;23.80;21.77;;;3.00;99.90;;;;;;4741027;30;20090;-74
2022/04/04 07:44:55;;;;;;;27.42;24.85;;;3.00;99.90;;;;;;4740065;30;20048;-74
2022/04/04 07:47:22;;;;;;;27.17;24.40;;;3.00;99.90;;;;;;4754780;30;20044;-74
2022/04/04 07:49:49;;;;;;;24.15;22.15;;;3.00;99.90;;;;;;4739355;30;20071;-73
2022/04/04 07:52:16;;;;;;;25.17;23.20;;;3.00;99.90;;;;;;4737555;30;20080;-75
2022/04/04 07:54:43;;;;;;;24.25;22.25;;;3.00;99.90;;;;;;4738975;30;20052;-73
2022/04/04 07:57:10;;;;;;;25.30;23.23;;;3.00;99.90;;;;;;4747927;30;20131;-74
2022/04/04 07:59:37;;;;;;;26.25;24.02;;;3.10;99.90;;;;;;4754328;30;20142;-74
2022/04/04 08:02:04;;;;;;;27.30;24.88;;;3.10;99.90;;;;;;4756713;30;20971;-74
2022/04/04 08:04:31;;;;;;;23.70;21.90;;;3.10;99.90;;;;;;4753678;30;20186;-73
2022/04/04 08:06:57;;;;;;;26.48;24.08;;;3.20;99.90;;;;;;4738917;30;20083;-74
2022/04/04 08:09:26;;;;;;;24.52;22.63;;;3.20;99.90;;;;;;4740310;30;20060;-73
2022/04/04 08:11:54;;;;;;;25.95;23.77;;;3.30;99.90;;;;;;4740870;30;20734;-74
2022/04/04 08:14:21;;;;;;;24.83;22.95;;;3.30;99.90;;;;;;4740685;30;20094;-73
2022/04/04 08:16:48;;;;;;;26.55;24.35;;;3.40;99.90;;;;;;4739081;30;20048;-74
2022/04/04 08:19:17;;;;;;;26.15;23.88;;;3.50;99.90;;;;;;4739663;30;20055;-73
2022/04/04 08:21:44;;;;;;;25.42;23.63;;;3.50;99.90;;;;;;4739875;30;20052;-74
2022/04/04 08:24:13;;;;;;;26.08;23.88;;;3.60;99.90;;;;;;4743796;30;20219;-74
2022/04/04 08:26:40;;;;;;;25.63;23.60;;;3.60;99.90;;;;;;4745618;30;20306;-73
2022/04/04 08:29:09;;;;;;;26.13;24.02;;;3.60;99.90;;;;;;4748610;30;20139;-76
2022/04/04 08:31:37;;;;;;;26.65;24.55;;;3.70;99.90;;;;;;4746278;30;20087;-76
2022/04/04 08:34:05;;;;;;;25.33;23.35;;;3.80;99.90;;;;;;4740974;30;20066;-76
2022/04/04 08:36:38;;;;;;;25.33;23.23;;;3.80;99.90;;;;;;4734614;30;20056;-76
2022/04/04 08:39:06;;;;;;;26.13;24.13;;;3.90;99.90;;;;;;4741916;30;20052;-77
2022/04/04 08:41:36;;;;;;;27.40;25.38;;;3.90;99.90;;;;;;4740432;30;20060;-77
2022/04/04 08:44:03;;;;;;;25.38;23.55;;;4.00;99.90;;;;;;4745472;30;20145;-77
2022/04/04 08:46:33;;;;;;;24.95;22.98;;;4.00;99.90;;;;;;4740051;30;20585;-77
2022/04/04 08:49:04;;;;;;;27.08;24.77;;;4.00;99.90;;;;;;4748413;30;20121;-78
2022/04/04 08:51:31;;;;;;;25.25;23.25;;;4.00;99.90;;;;;;4749723;30;20052;-77
2022/04/04 08:53:57;;;;;;;26.48;24.40;;;4.00;99.90;;;;;;4758598;30;20064;-77
2022/04/04 08:56:26;;;;;;;26.38;24.27;;;4.00;99.90;;;;;;4762074;30;20106;-76
2022/04/04 08:58:53;;;;;;;26.73;24.67;;;4.10;99.90;;;;;;4773038;30;20104;-78
2022/04/04 09:01:22;;;;;;;25.65;23.75;;;4.00;99.90;;;;;;4757907;30;20087;-77
2022/04/04 09:03:58;;;;;;;27.25;24.83;;;4.10;99.90;;;;;;4771539;30;20718;-77
2022/04/04 09:06:28;;;;;;;28.55;26.27;;;4.20;99.90;;;;;;4753622;30;20060;-77
2022/04/04 09:08:56;;;;;;;26.55;24.55;;;4.20;99.90;;;;;;4752365;30;20133;-77
2022/04/04 09:11:23;;;;;;;28.77;26.27;;;4.30;99.90;;;;;;4754886;30;20056;-77
2022/04/04 09:14:08;;;;;;;28.75;26.02;;;4.30;99.90;;;;;;4740806;30;20103;-77
2022/04/04 09:16:36;;;;;;;26.85;24.75;;;4.40;99.90;;;;;;4755447;30;20116;-77
2022/04/04 09:19:03;;;;;;;26.80;24.67;;;4.50;99.90;;;;;;4753936;30;20052;-79
2022/04/04 09:21:33;;;;;;;27.52;25.15;;;4.60;99.90;;;;;;4752739;30;20064;-78
2022/04/04 09:24:07;;;;;;;26.70;24.77;;;4.60;99.90;;;;;;4752756;30;20060;-77
2022/04/04 09:26:37;;;;;;;25.63;23.83;;;4.70;99.90;;;;;;4761466;30;20052;-78
2022/04/04 09:29:20;;;;;;;25.17;23.20;;;4.70;99.90;;;;;;4763109;30;20079;-77
2022/04/04 09:32:05;;;;;;;26.65;24.38;;;4.80;99.90;;;;;;4735548;30;20056;-77
2022/04/04 09:34:50;;;;;;;;;;;4.90;99.90;;;;;;4739607;30;20512;-77
2022/04/04 09:37:17;;;;;;;24.88;22.77;;;4.90;99.90;;;;;;4750892;30;19926;-78
2022/04/04 09:39:44;;;;;;;26.05;23.92;;;4.90;99.90;;;;;;4751146;30;20086;-77
2022/04/04 09:42:32;;;;;;;25.63;23.50;;;5.00;99.90;;;;;;4754313;30;20076;-79
2022/04/04 09:45:10;;;;;;;24.25;22.50;;;5.00;99.90;;;;;;4752196;30;20094;-77
2022/04/04 09:47:49;;;;;;;25.65;23.60;;;4.90;99.90;;;;;;4758890;30;20159;-77
2022/04/04 09:50:45;;;;;;;26.17;24.08;;;4.90;99.90;;;;;;4765200;30;20048;-76
2022/04/04 09:53:21;;;;;;;25.38;23.50;;;4.90;99.90;;;;;;4756368;30;20060;-77
2022/04/04 09:55:52;;;;;;;25.42;23.20;;;4.90;99.90;;;;;;4732177;30;20246;-77
2022/04/04 09:58:21;;;;;;;25.83;23.55;;;4.90;99.90;;;;;;4752587;30;20077;-77
2022/04/04 10:00:51;;;;;;;25.92;23.55;;;4.90;99.90;;;;;;4749746;30;20159;-78
2022/04/04 10:03:20;;;;;;;26.63;24.63;;;4.90;99.90;;;;;;4751106;30;20055;-78
2022/04/04 10:05:57;;;;;;;24.25;22.65;;;4.90;99.90;;;;;;4740495;30;20060;-79
2022/04/04 10:08:26;;;;;;;25.02;23.33;;;4.80;99.90;;;;;;4750585;30;20056;-78
2022/04/04 10:10:57;;;;;;;24.98;23.08;;;4.90;99.90;;;;;;4751340;30;20259;-77
2022/04/04 10:13:25;;;;;;;24.80;22.88;;;4.80;99.90;;;;;;4748529;30;20056;-77
2022/04/04 10:15:53;;;;;;;24.60;22.70;;;4.80;99.90;;;;;;4755028;30;20056;-78
2022/04/04 10:18:21;;;;;;;25.25;23.20;;;4.70;99.90;;;;;;4753081;30;20074;-78
2022/04/04 10:20:56;;;;;;;25.52;23.52;;;4.80;99.90;;;;;;4752931;30;20250;-77
2022/04/04 10:23:24;;;;;;;25.15;23.13;;;4.90;99.90;;;;;;4752811;30;20739;-78
2022/04/04 10:25:53;;;;;;;26.42;24.30;;;4.80;99.90;;;;;;4756464;30;20055;-76
2022/04/04 10:28:30;;;;;;;26.23;24.13;;;4.80;99.90;;;;;;4760839;30;20052;-77
2022/04/04 10:31:12;;;;;;;26.27;23.83;;;4.80;99.90;;;;;;4752149;30;20243;-76
2022/04/04 10:33:39;;;;;;;27.35;25.08;;;4.90;99.90;;;;;;4767346;30;20063;-77
2022/04/04 10:36:11;;;;;;;26.48;24.23;;;4.90;99.90;;;;;;4767563;30;20051;-77
2022/04/04 10:38:46;;;;;;;26.73;24.73;;;4.80;99.90;;;;;;4750731;30;20056;-78
2022/04/04 10:41:13;;;;;;;;;;;4.80;99.90;;;;;;4748536;30;20113;-78
2022/04/04 10:43:48;;;;;;;26.55;24.55;;;4.90;99.90;;;;;;4748803;30;19983;-76
2022/04/04 10:46:19;;;;;;;28.50;26.08;;;4.80;99.90;;;;;;4748932;30;20071;-78
2022/04/04 10:49:07;;;;;;;28.05;25.88;;;4.80;99.90;;;;;;4749324;30;20069;-77
2022/04/04 10:51:36;;;;;;;25.48;23.17;;;4.80;99.90;;;;;;4732174;30;20075;-76
2022/04/04 10:54:05;;;;;;;24.88;22.60;;;4.70;99.90;;;;;;4745071;30;20095;-77
2022/04/04 10:56:47;;;;;;;27.65;25.23;;;4.60;99.90;;;;;;4750503;30;20055;-77
2022/04/04 10:59:19;;;;;;;24.98;22.38;;;4.40;99.90;;;;;;4754407;30;20587;-79
2022/04/04 11:01:53;;;;;;;27.17;24.27;;;4.30;99.90;;;;;;4759128;30;20059;-75
2022/04/04 11:04:27;;;;;;;25.67;23.30;;;4.20;99.90;;;;;;4758405;30;20086;-75
2022/04/04 11:10:06;;;;;;;22.42;20.17;;;4.10;99.90;;;;;;4740205;30;20048;-77
2022/04/04 11:12:56;;;;;;;22.30;20.05;;;3.90;99.90;;;;;;4739875;30;20469;-75
2022/04/04 11:15:42;;;;;;;27.95;23.58;;;4.00;99.90;;;;;;4745408;30;20056;-74
2022/04/04 11:18:10;;;;;;;37.10;27.58;;;4.00;99.90;;;;;;4726743;30;20052;-73
2022/04/04 11:20:59;;;;;;;30.58;25.58;;;4.00;99.90;;;;;;4738632;30;20044;-73
2022/04/04 11:23:30;;;;;;;24.15;21.75;;;4.00;99.90;;;;;;4740914;30;20071;-74
2022/04/04 11:25:57;;;;;;;21.60;19.48;;;4.00;99.90;;;;;;4740068;30;20067;-74
2022/04/04 11:28:25;;;;;;;20.95;18.75;;;4.00;99.90;;;;;;4743748;30;20091;-74
2022/04/04 11:30:54;;;;;;;22.23;20.17;;;4.00;99.90;;;;;;4739218;30;20056;-74
2022/04/04 11:33:25;;;;;;;21.85;19.77;;;4.00;99.90;;;;;;4739335;30;20055;-73
2022/04/04 11:35:52;;;;;;;19.98;18.15;;;4.00;99.90;;;;;;4737106;30;20140;-73
2022/04/04 11:38:20;;;;;;;18.00;16.30;;;3.80;99.90;;;;;;4740099;30;20093;-74
2022/04/04 11:40:53;;;;;;;20.20;17.98;;;3.80;99.90;;;;;;4739157;30;20703;-74
2022/04/04 11:43:25;;;;;;;21.55;16.55;;;3.80;99.90;;;;;;4740189;30;20060;-74
2022/04/04 11:45:54;;;;;;;19.90;17.20;;;3.80;99.90;;;;;;4751401;30;20719;-74
2022/04/04 11:48:26;;;;;;;18.83;15.57;;;3.80;99.90;;;;;;4754034;30;20051;-74
2022/04/04 11:50:57;;;;;;;16.23;14.52;;;3.80;99.90;;;;;;4738532;30;20071;-73
2022/04/04 11:53:27;;;;;;;23.73;16.83;;;3.80;99.90;;;;;;4739616;30;20075;-73
2022/04/04 11:56:02;;;;;;;22.02;17.33;;;3.80;99.90;;;;;;4741881;30;20172;-75
2022/04/04 11:58:32;;;;;;;23.67;18.30;;;3.80;99.90;;;;;;4748365;30;20752;-75
2022/04/04 12:01:04;;;;;;;24.45;14.68;;;3.60;99.90;;;;;;4752698;30;20166;-75
2022/04/04 12:03:43;;;;;;;17.20;13.50;;;3.40;99.90;;;;;;4740381;30;20056;-74
2022/04/04 12:06:10;;;;;;;19.55;14.63;;;3.30;99.90;;;;;;4738388;30;20079;-75
2022/04/04 12:08:42;;;;;;;20.75;15.38;;;3.20;99.90;;;;;;4740070;30;20114;-74
2022/04/04 12:11:10;;;;;;;20.23;15.10;;;3.20;99.90;;;;;;4735591;30;20056;-74
2022/04/04 12:13:53;;;;;;;21.70;16.60;;;3.10;99.90;;;;;;4737108;30;20083;-74
2022/04/04 12:16:21;;;;;;;23.88;15.60;;;3.10;99.90;;;;;;4736188;30;20125;-75
2022/04/04 12:19:00;;;;;;;20.67;15.13;;;3.10;99.90;;;;;;4739407;30;20530;-74
2022/04/04 12:21:28;;;;;;;22.05;14.60;;;3.10;99.90;;;;;;4752889;30;20060;-74
2022/04/04 12:26:43;;;;;;;18.25;12.88;;;3.10;99.90;;;;;;4772930;24;20200;31
2022/04/04 12:29:13;;;;;;;23.67;14.02;;;3.00;99.90;;;;;;4749140;30;20051;-73
2022/04/04 12:31:56;;;;;;;22.92;14.80;;;2.90;99.90;;;;;;4767500;30;20200;-71
2022/04/04 12:34:24;;;;;;;20.73;14.80;;;2.90;99.90;;;;;;4759128;30;20133;-72
2022/04/04 12:37:00;;;;;;;22.15;16.75;;;2.90;99.90;;;;;;4742306;30;20546;-73
2022/04/04 12:39:29;;;;;;;21.90;14.27;;;2.90;99.90;;;;;;4728327;30;20059;-74
2022/04/04 12:41:56;;;;;;;21.30;15.85;;;2.90;99.90;;;;;;4757672;30;20052;-72
2022/04/04 12:44:24;;;;;;;23.80;16.92;;;2.90;99.90;;;;;;4749936;30;20120;-75
2022/04/04 12:47:06;;;;;;;24.65;17.05;;;2.90;99.90;;;;;;4756201;30;20064;-72
2022/04/04 12:49:33;;;;;;;25.65;16.98;;;2.90;99.90;;;;;;4761491;30;20063;-72
2022/04/04 12:52:20;;;;;;;25.13;16.48;;;2.80;99.90;;;;;;4752025;30;20064;-73
2022/04/04 12:54:47;;;;;;;40.60;23.60;;;2.90;99.90;;;;;;4761726;30;20221;-73
2022/04/04 12:57:25;;;;;;;23.88;17.13;;;2.90;99.90;;;;;;4755811;30;20113;-73
2022/04/04 12:59:56;;;;;;;29.75;20.85;;;2.90;99.90;;;;;;4752641;30;20628;-73